sensor_id;sensor_type;location;lat;lon;timestamp;pressure;altitude;pressure_sealevel;temperature;humidity
47530;BME280;33272;51.922;7.730;2023-02-20T00:01:55;144083.03;;;6.38;100.00
47530;BME280;33272;51.922;7.730;2023-02-20T00:04:23;144072.94;;;6.34;100.00
47530;BME280;33272;51.922;7.730;2023-02-20T00:06:50;144074.19;;;6.34;100.00
47530;BME280;33272;51.922;7.730;2023-02-20T00:09:18;144064.06;;;6.30;100.00
47530;BME280;33272;51.922;7.730;2023-02-20T00:11:45;144057.78;;;6.28;100.00
47530;BME280;33272;51.922;7.730;2023-02-20T00:14:12;144055.22;;;6.26;100.00
47530;BME280;33272;51.922;7.730;2023-02-20T00:16:39;144052.72;;;6.25;100.00
47530;BME280;33272;51.922;7.730;2023-02-20T00:19:06;144048.91;;;6.24;100.00
47530;BME280;33272;51.922;7.730;2023-02-20T00:21:33;144050.22;;;6.24;100.00
47530;BME280;33272;51.922;7.730;2023-02-20T00:24:00;144033.75;;;6.18;100.00
47530;BME280;33272;51.922;7.730;2023-02-20T00:26:29;144037.56;;;6.19;100.00
47530;BME280;33272;51.922;7.730;2023-02-20T00:28:56;144026.22;;;6.15;100.00
47530;BME280;33272;51.922;7.730;2023-02-20T00:31:23;144018.66;;;6.12;100.00
47530;BME280;33272;51.922;7.730;2023-02-20T00:33:50;144027.47;;;6.15;100.00
47530;BME280;33272;51.922;7.730;2023-02-20T00:36:18;144028.75;;;6.16;100.00
47530;BME280;33272;51.922;7.730;2023-02-20T00:38:46;144027.47;;;6.15;100.00
47530;BME280;33272;51.922;7.730;2023-02-20T00:41:13;144008.53;;;6.08;100.00
47530;BME280;33272;51.922;7.730;2023-02-20T00:43:43;144021.16;;;6.13;100.00
47530;BME280;33272;51.922;7.730;2023-02-20T00:46:11;144011.06;;;6.09;100.00
47530;BME280;33272;51.922;7.730;2023-02-20T00:48:38;144003.50;;;6.06;100.00
47530;BME280;33272;51.922;7.730;2023-02-20T00:51:05;144022.41;;;6.13;100.00
47530;BME280;33272;51.922;7.730;2023-02-20T00:53:32;144021.16;;;6.13;100.00
47530;BME280;33272;51.922;7.730;2023-02-20T00:55:59;144019.91;;;6.12;100.00
47530;BME280;33272;51.922;7.730;2023-02-20T00:58:26;144016.09;;;6.11;100.00
47530;BME280;33272;51.922;7.730;2023-02-20T01:00:55;144014.84;;;6.10;100.00
47530;BME280;33272;51.922;7.730;2023-02-20T01:03:22;144011.06;;;6.09;100.00
47530;BME280;33272;51.922;7.730;2023-02-20T01:05:49;144009.78;;;6.08;100.00
47530;BME280;33272;51.922;7.730;2023-02-20T01:08:16;143978.22;;;5.95;100.00
47530;BME280;33272;51.922;7.730;2023-02-20T01:10:43;143979.50;;;5.96;100.00
47530;BME280;33272;51.922;7.730;2023-02-20T01:13:10;143961.75;;;5.89;100.00
47530;BME280;33272;51.922;7.730;2023-02-20T01:15:37;143952.94;;;5.85;100.00
47530;BME280;33272;51.922;7.730;2023-02-20T01:18:05;143964.31;;;5.90;100.00
47530;BME280;33272;51.922;7.730;2023-02-20T01:20:33;143946.59;;;5.82;100.00
47530;BME280;33272;51.922;7.730;2023-02-20T01:23:00;143940.28;;;5.80;100.00
47530;BME280;33272;51.922;7.730;2023-02-20T01:25:27;143949.16;;;5.84;100.00
47530;BME280;33272;51.922;7.730;2023-02-20T01:27:54;143951.69;;;5.85;100.00
47530;BME280;33272;51.922;7.730;2023-02-20T01:30:21;143952.94;;;5.85;100.00
47530;BME280;33272;51.922;7.730;2023-02-20T01:32:48;143954.19;;;5.86;100.00
47530;BME280;33272;51.922;7.730;2023-02-20T01:35:16;143949.16;;;5.84;100.00
47530;BME280;33272;51.922;7.730;2023-02-20T01:37:43;143950.41;;;5.84;100.00
47530;BME280;33272;51.922;7.730;2023-02-20T01:40:15;143960.50;;;5.88;100.00
47530;BME280;33272;51.922;7.730;2023-02-20T01:42:43;143955.44;;;5.86;100.00
47530;BME280;33272;51.922;7.730;2023-02-20T01:45:27;143951.69;;;5.85;100.00
47530;BME280;33272;51.922;7.730;2023-02-20T01:47:56;143969.34;;;5.92;100.00
47530;BME280;33272;51.922;7.730;2023-02-20T01:50:27;143984.53;;;5.98;100.00
47530;BME280;33272;51.922;7.730;2023-02-20T01:53:00;143987.03;;;5.99;100.00
47530;BME280;33272;51.922;7.730;2023-02-20T01:55:31;143990.84;;;6.00;100.00
47530;BME280;33272;51.922;7.730;2023-02-20T01:58:04;144012.34;;;6.09;100.00
47530;BME280;33272;51.922;7.730;2023-02-20T02:00:34;144012.34;;;6.09;100.00
47530;BME280;33272;51.922;7.730;2023-02-20T02:03:07;144035.06;;;6.18;100.00
47530;BME280;33272;51.922;7.730;2023-02-20T02:05:38;144033.75;;;6.18;100.00
47530;BME280;33272;51.922;7.730;2023-02-20T02:08:08;144055.22;;;6.26;100.00
47530;BME280;33272;51.922;7.730;2023-02-20T02:10:42;144060.31;;;6.29;100.00
47530;BME280;33272;51.922;7.730;2023-02-20T02:13:12;144057.78;;;6.28;100.00
47530;BME280;33272;51.922;7.730;2023-02-20T02:15:39;144069.13;;;6.32;100.00
47530;BME280;33272;51.922;7.730;2023-02-20T02:18:23;144072.94;;;6.34;100.00
47530;BME280;33272;51.922;7.730;2023-02-20T02:21:32;144079.22;;;6.36;100.00
47530;BME280;33272;51.922;7.730;2023-02-20T02:24:59;144055.22;;;6.26;100.00
47530;BME280;33272;51.922;7.730;2023-02-20T02:31:19;144056.50;;;6.27;100.00
47530;BME280;33272;51.922;7.730;2023-02-20T02:34:25;144030.00;;;6.16;100.00
47530;BME280;33272;51.922;7.730;2023-02-20T02:37:12;144075.47;;;6.35;100.00
47530;BME280;33272;51.922;7.730;2023-02-20T02:39:48;144066.63;;;6.31;100.00
47530;BME280;33272;51.922;7.730;2023-02-20T02:42:23;144069.13;;;6.32;100.00
47530;BME280;33272;51.922;7.730;2023-02-20T02:44:59;144053.97;;;6.26;100.00
47530;BME280;33272;51.922;7.730;2023-02-20T02:47:34;144056.50;;;6.27;100.00
47530;BME280;33272;51.922;7.730;2023-02-20T02:50:07;144042.63;;;6.21;100.00
47530;BME280;33272;51.922;7.730;2023-02-20T02:52:39;144036.31;;;6.19;100.00
47530;BME280;33272;51.922;7.730;2023-02-20T02:55:17;144036.31;;;6.19;100.00
47530;BME280;33272;51.922;7.730;2023-02-20T02:57:45;144035.06;;;6.18;100.00
47530;BME280;33272;51.922;7.730;2023-02-20T03:00:16;144019.91;;;6.12;100.00
47530;BME280;33272;51.922;7.730;2023-02-20T03:02:51;144024.94;;;6.14;100.00
47530;BME280;33272;51.922;7.730;2023-02-20T03:05:23;144027.47;;;6.15;100.00
47530;BME280;33272;51.922;7.730;2023-02-20T03:07:54;144017.34;;;6.11;100.00
47530;BME280;33272;51.922;7.730;2023-02-20T03:10:23;144016.09;;;6.11;100.00
47530;BME280;33272;51.922;7.730;2023-02-20T03:13:01;144003.50;;;6.06;100.00
47530;BME280;33272;51.922;7.730;2023-02-20T03:15:33;143990.84;;;6.00;100.00
47530;BME280;33272;51.922;7.730;2023-02-20T03:18:11;143989.59;;;6.00;100.00
47530;BME280;33272;51.922;7.730;2023-02-20T03:20:47;143987.03;;;5.99;100.00
47530;BME280;33272;51.922;7.730;2023-02-20T03:23:19;143976.97;;;5.95;100.00
47530;BME280;33272;51.922;7.730;2023-02-20T03:25:54;143974.44;;;5.94;100.00
47530;BME280;33272;51.922;7.730;2023-02-20T03:28:25;143979.50;;;5.96;100.00
47530;BME280;33272;51.922;7.730;2023-02-20T03:30:57;143978.22;;;5.95;100.00
47530;BME280;33272;51.922;7.730;2023-02-20T03:33:31;143969.34;;;5.92;100.00
47530;BME280;33272;51.922;7.730;2023-02-20T03:36:22;143965.56;;;5.90;100.00
47530;BME280;33272;51.922;7.730;2023-02-20T03:39:14;143971.94;;;5.93;100.00
47530;BME280;33272;51.922;7.730;2023-02-20T03:42:01;143971.94;;;5.93;100.00
47530;BME280;33272;51.922;7.730;2023-02-20T03:44:48;143984.53;;;5.98;100.00
47530;BME280;33272;51.922;7.730;2023-02-20T03:47:18;143992.13;;;6.01;100.00
47530;BME280;33272;51.922;7.730;2023-02-20T03:49:47;144007.25;;;6.07;100.00
47530;BME280;33272;51.922;7.730;2023-02-20T03:52:16;144011.06;;;6.09;100.00
47530;BME280;33272;51.922;7.730;2023-02-20T03:54:45;144027.47;;;6.15;100.00
47530;BME280;33272;51.922;7.730;2023-02-20T03:57:16;144036.31;;;6.19;100.00
47530;BME280;33272;51.922;7.730;2023-02-20T03:59:47;144048.91;;;6.24;100.00
47530;BME280;33272;51.922;7.730;2023-02-20T04:02:24;144038.81;;;6.20;100.00
47530;BME280;33272;51.922;7.730;2023-02-20T04:04:56;144047.66;;;6.23;100.00
47530;BME280;33272;51.922;7.730;2023-02-20T04:07:32;144052.72;;;6.25;100.00
47530;BME280;33272;51.922;7.730;2023-02-20T04:10:06;144042.63;;;6.21;100.00
47530;BME280;33272;51.922;7.730;2023-02-20T04:12:38;144055.22;;;6.26;100.00
47530;BME280;33272;51.922;7.730;2023-02-20T04:15:08;144050.22;;;6.24;100.00
47530;BME280;33272;51.922;7.730;2023-02-20T04:17:41;144050.22;;;6.24;100.00
47530;BME280;33272;51.922;7.730;2023-02-20T04:20:10;144051.47;;;6.25;100.00
47530;BME280;33272;51.922;7.730;2023-02-20T04:22:42;144048.91;;;6.24;100.00
47530;BME280;33272;51.922;7.730;2023-02-20T04:25:17;144051.47;;;6.25;100.00
47530;BME280;33272;51.922;7.730;2023-02-20T04:27:46;144055.22;;;6.26;100.00
47530;BME280;33272;51.922;7.730;2023-02-20T04:30:14;144067.88;;;6.32;100.00
47530;BME280;33272;51.922;7.730;2023-02-20T04:32:41;144050.22;;;6.24;100.00
47530;BME280;33272;51.922;7.730;2023-02-20T04:35:15;144062.81;;;6.30;100.00
47530;BME280;33272;51.922;7.730;2023-02-20T04:37:43;144065.38;;;6.31;100.00
47530;BME280;33272;51.922;7.730;2023-02-20T04:40:10;144060.31;;;6.29;100.00
47530;BME280;33272;51.922;7.730;2023-02-20T04:42:39;144061.56;;;6.29;100.00
47530;BME280;33272;51.922;7.730;2023-02-20T04:45:06;144051.47;;;6.25;100.00
47530;BME280;33272;51.922;7.730;2023-02-20T04:47:33;144055.22;;;6.26;100.00
47530;BME280;33272;51.922;7.730;2023-02-20T04:50:00;144060.31;;;6.29;100.00
47530;BME280;33272;51.922;7.730;2023-02-20T04:52:27;144053.97;;;6.26;100.00
47530;BME280;33272;51.922;7.730;2023-02-20T04:54:54;144075.47;;;6.35;100.00
47530;BME280;33272;51.922;7.730;2023-02-20T04:57:22;144074.19;;;6.34;100.00
47530;BME280;33272;51.922;7.730;2023-02-20T04:59:50;144060.31;;;6.29;100.00
47530;BME280;33272;51.922;7.730;2023-02-20T05:02:17;144067.88;;;6.32;100.00
47530;BME280;33272;51.922;7.730;2023-02-20T05:04:44;144067.88;;;6.32;100.00
47530;BME280;33272;51.922;7.730;2023-02-20T05:07:11;144060.31;;;6.29;100.00
47530;BME280;33272;51.922;7.730;2023-02-20T05:09:38;144070.38;;;6.33;100.00
47530;BME280;33272;51.922;7.730;2023-02-20T05:12:08;144059.03;;;6.28;100.00
47530;BME280;33272;51.922;7.730;2023-02-20T05:14:36;144056.50;;;6.27;100.00
47530;BME280;33272;51.922;7.730;2023-02-20T05:17:04;144066.63;;;6.31;100.00
47530;BME280;33272;51.922;7.730;2023-02-20T05:19:31;144071.66;;;6.33;100.00
47530;BME280;33272;51.922;7.730;2023-02-20T05:21:58;144089.34;;;6.40;100.00
47530;BME280;33272;51.922;7.730;2023-02-20T05:24:43;144085.53;;;6.39;100.00
47530;BME280;33272;51.922;7.730;2023-02-20T05:27:10;144099.44;;;6.44;100.00
47530;BME280;33272;51.922;7.730;2023-02-20T05:29:44;144103.22;;;6.46;100.00
47530;BME280;33272;51.922;7.730;2023-02-20T05:32:13;144077.97;;;6.36;100.00
47530;BME280;33272;51.922;7.730;2023-02-20T05:34:41;144090.63;;;6.41;100.00
47530;BME280;33272;51.922;7.730;2023-02-20T05:37:09;144100.69;;;6.45;100.00
47530;BME280;33272;51.922;7.730;2023-02-20T05:39:36;144108.28;;;6.48;100.00
47530;BME280;33272;51.922;7.730;2023-02-20T05:42:04;144112.09;;;6.49;100.00
47530;BME280;33272;51.922;7.730;2023-02-20T05:44:31;144099.44;;;6.44;100.00
47530;BME280;33272;51.922;7.730;2023-02-20T05:46:58;144103.22;;;6.46;100.00
47530;BME280;33272;51.922;7.730;2023-02-20T05:49:27;144101.97;;;6.45;100.00
47530;BME280;33272;51.922;7.730;2023-02-20T05:51:55;144114.59;;;6.50;100.00
47530;BME280;33272;51.922;7.730;2023-02-20T05:54:23;144105.78;;;6.47;100.00
47530;BME280;33272;51.922;7.730;2023-02-20T05:56:51;144098.19;;;6.44;100.00
47530;BME280;33272;51.922;7.730;2023-02-20T05:59:20;144093.13;;;6.42;100.00
47530;BME280;33272;51.922;7.730;2023-02-20T06:01:48;144098.19;;;6.44;100.00
47530;BME280;33272;51.922;7.730;2023-02-20T06:04:17;144101.97;;;6.45;100.00
47530;BME280;33272;51.922;7.730;2023-02-20T06:06:46;144107.03;;;6.47;100.00
47530;BME280;33272;51.922;7.730;2023-02-20T06:09:13;144108.28;;;6.48;100.00
47530;BME280;33272;51.922;7.730;2023-02-20T06:11:46;144136.09;;;6.59;100.00
47530;BME280;33272;51.922;7.730;2023-02-20T06:14:16;144123.44;;;6.54;100.00
47530;BME280;33272;51.922;7.730;2023-02-20T06:16:44;144124.69;;;6.55;100.00
47530;BME280;33272;51.922;7.730;2023-02-20T06:19:16;144117.13;;;6.52;100.00
47530;BME280;33272;51.922;7.730;2023-02-20T06:21:46;144138.59;;;6.60;100.00
47530;BME280;33272;51.922;7.730;2023-02-20T06:24:13;144147.44;;;6.64;100.00
47530;BME280;33272;51.922;7.730;2023-02-20T06:26:40;144172.69;;;6.74;100.00
47530;BME280;33272;51.922;7.730;2023-02-20T06:29:08;144133.53;;;6.58;100.00
47530;BME280;33272;51.922;7.730;2023-02-20T06:31:36;144176.50;;;6.76;100.00
47530;BME280;33272;51.922;7.730;2023-02-20T06:34:03;144156.28;;;6.67;100.00
47530;BME280;33272;51.922;7.730;2023-02-20T06:36:33;144113.34;;;6.50;100.00
47530;BME280;33272;51.922;7.730;2023-02-20T06:39:02;144127.22;;;6.56;100.00
47530;BME280;33272;51.922;7.730;2023-02-20T06:41:30;144153.75;;;6.66;100.00
47530;BME280;33272;51.922;7.730;2023-02-20T06:43:57;144144.94;;;6.63;100.00
47530;BME280;33272;51.922;7.730;2023-02-20T06:46:24;144133.53;;;6.58;100.00
47530;BME280;33272;51.922;7.730;2023-02-20T06:48:54;144127.22;;;6.56;100.00
47530;BME280;33272;51.922;7.730;2023-02-20T06:51:24;144085.53;;;6.39;100.00
47530;BME280;33272;51.922;7.730;2023-02-20T06:53:51;144110.78;;;6.49;100.00
47530;BME280;33272;51.922;7.730;2023-02-20T06:56:22;144124.69;;;6.55;100.00
47530;BME280;33272;51.922;7.730;2023-02-20T06:58:51;144152.50;;;6.66;100.00
47530;BME280;33272;51.922;7.730;2023-02-20T07:01:26;144152.50;;;6.66;100.00
47530;BME280;33272;51.922;7.730;2023-02-20T07:03:54;144134.78;;;6.59;100.00
47530;BME280;33272;51.922;7.730;2023-02-20T07:06:22;144155.03;;;6.67;100.00
47530;BME280;33272;51.922;7.730;2023-02-20T07:08:50;144103.22;;;6.46;100.00
47530;BME280;33272;51.922;7.730;2023-02-20T07:11:21;144118.38;;;6.52;100.00
47530;BME280;33272;51.922;7.730;2023-02-20T07:13:49;144132.28;;;6.58;100.00
47530;BME280;33272;51.922;7.730;2023-02-20T07:16:16;144132.28;;;6.58;100.00
47530;BME280;33272;51.922;7.730;2023-02-20T07:18:43;144138.59;;;6.60;100.00
47530;BME280;33272;51.922;7.730;2023-02-20T07:21:10;144107.03;;;6.47;100.00
47530;BME280;33272;51.922;7.730;2023-02-20T07:23:37;144086.81;;;6.39;100.00
47530;BME280;33272;51.922;7.730;2023-02-20T07:26:04;144132.28;;;6.58;100.00
47530;BME280;33272;51.922;7.730;2023-02-20T07:28:34;144136.09;;;6.59;100.00
47530;BME280;33272;51.922;7.730;2023-02-20T07:31:01;144141.09;;;6.61;100.00
47530;BME280;33272;51.922;7.730;2023-02-20T07:33:28;144163.84;;;6.70;100.00
47530;BME280;33272;51.922;7.730;2023-02-20T07:35:55;144168.91;;;6.72;100.00
47530;BME280;33272;51.922;7.730;2023-02-20T07:38:22;144163.84;;;6.70;100.00
47530;BME280;33272;51.922;7.730;2023-02-20T07:40:49;144136.09;;;6.59;100.00
47530;BME280;33272;51.922;7.730;2023-02-20T07:43:16;144137.34;;;6.60;100.00
47530;BME280;33272;51.922;7.730;2023-02-20T07:45:45;144162.59;;;6.70;100.00
47530;BME280;33272;51.922;7.730;2023-02-20T07:48:12;144171.44;;;6.73;100.00
47530;BME280;33272;51.922;7.730;2023-02-20T07:50:39;144146.19;;;6.63;100.00
47530;BME280;33272;51.922;7.730;2023-02-20T07:53:06;144165.09;;;6.71;100.00
47530;BME280;33272;51.922;7.730;2023-02-20T07:55:33;144157.53;;;6.68;100.00
47530;BME280;33272;51.922;7.730;2023-02-20T07:58:00;144185.34;;;6.79;100.00
47530;BME280;33272;51.922;7.730;2023-02-20T08:00:27;144181.53;;;6.78;100.00
47530;BME280;33272;51.922;7.730;2023-02-20T08:02:55;144216.91;;;6.92;100.00
47530;BME280;33272;51.922;7.730;2023-02-20T08:05:24;144229.56;;;6.97;100.00
47530;BME280;33272;51.922;7.730;2023-02-20T08:07:51;144253.59;;;7.07;100.00
47530;BME280;33272;51.922;7.730;2023-02-20T08:10:21;144229.56;;;6.97;100.00
47530;BME280;33272;51.922;7.730;2023-02-20T08:12:51;144276.34;;;7.16;100.00
47530;BME280;33272;51.922;7.730;2023-02-20T08:15:20;144248.50;;;7.05;100.00
47530;BME280;33272;51.922;7.730;2023-02-20T08:17:47;144254.84;;;7.07;100.00
47530;BME280;33272;51.922;7.730;2023-02-20T08:20:19;144261.16;;;7.10;100.00
47530;BME280;33272;51.922;7.730;2023-02-20T08:22:48;144222.00;;;6.94;100.00
47530;BME280;33272;51.922;7.730;2023-02-20T08:25:16;144278.84;;;7.17;100.00
47530;BME280;33272;51.922;7.730;2023-02-20T08:27:45;144264.94;;;7.11;100.00
47530;BME280;33272;51.922;7.730;2023-02-20T08:30:18;144301.59;;;7.26;100.00
47530;BME280;33272;51.922;7.730;2023-02-20T08:32:48;144306.66;;;7.28;100.00
47530;BME280;33272;51.922;7.730;2023-02-20T08:35:17;144243.44;;;7.03;100.00
47530;BME280;33272;51.922;7.730;2023-02-20T08:37:44;144261.16;;;7.10;100.00
47530;BME280;33272;51.922;7.730;2023-02-20T08:40:12;144296.53;;;7.24;100.00
47530;BME280;33272;51.922;7.730;2023-02-20T08:42:39;144295.25;;;7.24;100.00
47530;BME280;33272;51.922;7.730;2023-02-20T08:45:08;144310.44;;;7.30;100.00
47530;BME280;33272;51.922;7.730;2023-02-20T08:47:35;144301.59;;;7.26;100.00
47530;BME280;33272;51.922;7.730;2023-02-20T08:50:03;144278.84;;;7.17;100.00
47530;BME280;33272;51.922;7.730;2023-02-20T08:52:31;144314.19;;;7.31;100.00
47530;BME280;33272;51.922;7.730;2023-02-20T08:54:58;144307.91;;;7.29;100.00
47530;BME280;33272;51.922;7.730;2023-02-20T08:57:25;144366.03;;;7.52;100.00
47530;BME280;33272;51.922;7.730;2023-02-20T08:59:52;144385.03;;;7.60;100.00
47530;BME280;33272;51.922;7.730;2023-02-20T09:02:22;144382.47;;;7.59;100.00
47530;BME280;33272;51.922;7.730;2023-02-20T09:04:53;144355.94;;;7.48;100.00
47530;BME280;33272;51.922;7.730;2023-02-20T09:07:21;144387.53;;;7.61;100.00
47530;BME280;33272;51.922;7.730;2023-02-20T09:09:49;144406.50;;;7.69;100.00
47530;BME280;33272;51.922;7.730;2023-02-20T09:12:17;144403.97;;;7.68;100.00
47530;BME280;33272;51.922;7.730;2023-02-20T09:14:44;144391.31;;;7.62;100.00
47530;BME280;33272;51.922;7.730;2023-02-20T09:17:11;144443.16;;;7.83;100.00
47530;BME280;33272;51.922;7.730;2023-02-20T09:19:38;144425.47;;;7.76;100.00
47530;BME280;33272;51.922;7.730;2023-02-20T09:22:05;144419.16;;;7.74;100.00
47530;BME280;33272;51.922;7.730;2023-02-20T09:24:32;144412.81;;;7.71;100.00
47530;BME280;33272;51.922;7.730;2023-02-20T09:27:03;144401.47;;;7.66;100.00
47530;BME280;33272;51.922;7.730;2023-02-20T09:29:31;144406.50;;;7.69;100.00
47530;BME280;33272;51.922;7.730;2023-02-20T09:31:58;144419.16;;;7.74;100.00
47530;BME280;33272;51.922;7.730;2023-02-20T09:34:25;144468.44;;;7.94;100.00
47530;BME280;33272;51.922;7.730;2023-02-20T09:36:52;144484.88;;;8.00;100.00
47530;BME280;33272;51.922;7.730;2023-02-20T09:39:19;144436.84;;;7.81;100.00
47530;BME280;33272;51.922;7.730;2023-02-20T09:42:03;144481.13;;;7.99;100.00
47530;BME280;33272;51.922;7.730;2023-02-20T09:44:39;144447.00;;;7.85;100.00
47530;BME280;33272;51.922;7.730;2023-02-20T09:47:25;144438.09;;;7.81;100.00
47530;BME280;33272;51.922;7.730;2023-02-20T09:49:57;144482.38;;;7.99;100.00
47530;BME280;33272;51.922;7.730;2023-02-20T09:52:26;144508.91;;;8.10;100.00
47530;BME280;33272;51.922;7.730;2023-02-20T09:55:02;144478.59;;;7.98;100.00
47530;BME280;33272;51.922;7.730;2023-02-20T09:57:31;144439.41;;;7.82;100.00
47530;BME280;33272;51.922;7.730;2023-02-20T10:00:05;144453.28;;;7.87;100.00
47530;BME280;33272;51.922;7.730;2023-02-20T10:02:38;144500.06;;;8.06;100.00
47530;BME280;33272;51.922;7.730;2023-02-20T10:05:17;144489.97;;;8.02;100.00
47530;BME280;33272;51.922;7.730;2023-02-20T10:07:48;144517.81;;;8.13;100.00
47530;BME280;33272;51.922;7.730;2023-02-20T10:10:22;144560.78;;;8.31;100.00
47530;BME280;33272;51.922;7.730;2023-02-20T10:13:05;144544.34;;;8.24;100.00
47530;BME280;33272;51.922;7.730;2023-02-20T10:15:41;144589.94;;;8.43;100.00
47530;BME280;33272;51.922;7.730;2023-02-20T10:18:20;144606.38;;;8.49;100.00
47530;BME280;33272;51.922;7.730;2023-02-20T10:20:57;144573.44;;;8.36;100.00
47530;BME280;33272;51.922;7.730;2023-02-20T10:23:37;144506.41;;;8.09;100.00
47530;BME280;33272;51.922;7.730;2023-02-20T10:26:09;144534.25;;;8.20;100.00
47530;BME280;33272;51.922;7.730;2023-02-20T10:28:39;144555.72;;;8.29;100.00
47530;BME280;33272;51.922;7.730;2023-02-20T10:31:16;144583.59;;;8.40;100.00
47530;BME280;33272;51.922;7.730;2023-02-20T10:33:52;144603.88;;;8.48;100.00
47530;BME280;33272;51.922;7.730;2023-02-20T10:36:24;144563.28;;;8.32;100.00
47530;BME280;33272;51.922;7.730;2023-02-20T10:38:57;144600.06;;;8.47;100.00
47530;BME280;33272;51.922;7.730;2023-02-20T10:41:31;144574.72;;;8.36;100.00
47530;BME280;33272;51.922;7.730;2023-02-20T10:44:07;144565.88;;;8.33;100.00
47530;BME280;33272;51.922;7.730;2023-02-20T10:46:42;144573.44;;;8.36;100.00
47530;BME280;33272;51.922;7.730;2023-02-20T10:49:15;144588.69;;;8.42;100.00
47530;BME280;33272;51.922;7.730;2023-02-20T10:51:47;144577.22;;;8.38;100.00
47530;BME280;33272;51.922;7.730;2023-02-20T10:54:20;144569.63;;;8.34;100.00
47530;BME280;33272;51.922;7.730;2023-02-20T10:56:55;144615.22;;;8.53;100.00
47530;BME280;33272;51.922;7.730;2023-02-20T10:59:31;144608.91;;;8.50;100.00
47530;BME280;33272;51.922;7.730;2023-02-20T11:02:01;144640.53;;;8.63;100.00
47530;BME280;33272;51.922;7.730;2023-02-20T11:04:33;144653.19;;;8.68;100.00
47530;BME280;33272;51.922;7.730;2023-02-20T11:07:07;144625.34;;;8.57;100.00
47530;BME280;33272;51.922;7.730;2023-02-20T11:09:35;144649.38;;;8.67;100.00
47530;BME280;33272;51.922;7.730;2023-02-20T11:12:03;144672.16;;;8.76;100.00
47530;BME280;33272;51.922;7.730;2023-02-20T11:14:40;144700.03;;;8.87;100.00
47530;BME280;33272;51.922;7.730;2023-02-20T11:17:12;144684.84;;;8.81;100.00
47530;BME280;33272;51.922;7.730;2023-02-20T11:19:43;144706.34;;;8.90;100.00
47530;BME280;33272;51.922;7.730;2023-02-20T11:22:11;144715.22;;;8.93;100.00
47530;BME280;33272;51.922;7.730;2023-02-20T11:24:39;144649.38;;;8.67;100.00
47530;BME280;33272;51.922;7.730;2023-02-20T11:27:10;144674.72;;;8.77;100.00
47530;BME280;33272;51.922;7.730;2023-02-20T11:29:52;144707.63;;;8.90;100.00
47530;BME280;33272;51.922;7.730;2023-02-20T11:32:32;144662.06;;;8.72;100.00
47530;BME280;33272;51.922;7.730;2023-02-20T11:35:29;144634.19;;;8.61;100.00
47530;BME280;33272;51.922;7.730;2023-02-20T11:38:33;144648.13;;;8.66;100.00
47530;BME280;33272;51.922;7.730;2023-02-20T11:41:25;144677.25;;;8.78;100.00
47530;BME280;33272;51.922;7.730;2023-02-20T11:44:25;144662.06;;;8.72;100.00
47530;BME280;33272;51.922;7.730;2023-02-20T11:47:22;144686.09;;;8.81;100.00
47530;BME280;33272;51.922;7.730;2023-02-20T11:50:15;144656.97;;;8.70;100.00
47530;BME280;33272;51.922;7.730;2023-02-20T11:53:04;144651.94;;;8.68;100.00
47530;BME280;33272;51.922;7.730;2023-02-20T11:55:33;144669.66;;;8.75;100.00
47530;BME280;33272;51.922;7.730;2023-02-20T11:58:01;144646.88;;;8.66;100.00
47530;BME280;33272;51.922;7.730;2023-02-20T12:00:43;144721.56;;;8.96;100.00
47530;BME280;33272;51.922;7.730;2023-02-20T12:03:16;144696.19;;;8.86;100.00
47530;BME280;33272;51.922;7.730;2023-02-20T12:05:46;144759.53;;;9.11;100.00
47530;BME280;33272;51.922;7.730;2023-02-20T12:08:35;144745.59;;;9.05;100.00
47530;BME280;33272;51.922;7.730;2023-02-20T12:11:07;144725.31;;;8.97;100.00
47530;BME280;33272;51.922;7.730;2023-02-20T12:13:39;144770.91;;;9.16;100.00
47530;BME280;33272;51.922;7.730;2023-02-20T12:16:27;144706.34;;;8.90;100.00
47530;BME280;33272;51.922;7.730;2023-02-20T12:19:08;144697.50;;;8.86;100.00
47530;BME280;33272;51.922;7.730;2023-02-20T12:21:53;144721.56;;;8.96;100.00
47530;BME280;33272;51.922;7.730;2023-02-20T12:24:56;144679.75;;;8.79;100.00
47530;BME280;33272;51.922;7.730;2023-02-20T12:27:56;144716.47;;;8.94;100.00
47530;BME280;33272;51.922;7.730;2023-02-20T12:30:51;144724.06;;;8.97;100.00
47530;BME280;33272;51.922;7.730;2023-02-20T12:33:50;144708.88;;;8.91;100.00
47530;BME280;33272;51.922;7.730;2023-02-20T12:36:32;144748.13;;;9.07;100.00
47530;BME280;33272;51.922;7.730;2023-02-20T12:39:07;144669.66;;;8.75;100.00
47530;BME280;33272;51.922;7.730;2023-02-20T12:42:05;144688.59;;;8.82;100.00
47530;BME280;33272;51.922;7.730;2023-02-20T12:44:55;144740.50;;;9.03;100.00
47530;BME280;33272;51.922;7.730;2023-02-20T12:47:30;144774.69;;;9.17;100.00
47530;BME280;33272;51.922;7.730;2023-02-20T12:50:18;144762.06;;;9.12;100.00
47530;BME280;33272;51.922;7.730;2023-02-20T12:53:19;144673.47;;;8.76;100.00
47530;BME280;33272;51.922;7.730;2023-02-20T12:56:10;144697.50;;;8.86;100.00
47530;BME280;33272;51.922;7.730;2023-02-20T12:58:46;144697.50;;;8.86;100.00
47530;BME280;33272;51.922;7.730;2023-02-20T13:01:18;144692.44;;;8.84;100.00
47530;BME280;33272;51.922;7.730;2023-02-20T13:03:56;144702.53;;;8.88;100.00
47530;BME280;33272;51.922;7.730;2023-02-20T13:06:29;144736.75;;;9.02;100.00
47530;BME280;33272;51.922;7.730;2023-02-20T13:09:08;144717.72;;;8.94;100.00
47530;BME280;33272;51.922;7.730;2023-02-20T13:11:40;144702.53;;;8.88;100.00
47530;BME280;33272;51.922;7.730;2023-02-20T13:14:24;144707.63;;;8.90;100.00
47530;BME280;33272;51.922;7.730;2023-02-20T13:17:02;144721.56;;;8.96;100.00
47530;BME280;33272;51.922;7.730;2023-02-20T13:19:38;144724.06;;;8.97;100.00
47530;BME280;33272;51.922;7.730;2023-02-20T13:22:06;144715.22;;;8.93;100.00